createdAt,value
2022-08-18T00:01:16.846Z,20.59
2022-08-18T00:03:56.143Z,20.56
2022-08-18T00:06:29.921Z,20.50
2022-08-18T00:09:00.277Z,20.48
2022-08-18T00:11:41.444Z,20.44
2022-08-18T00:14:19.683Z,20.46
2022-08-18T00:16:52.312Z,20.45
2022-08-18T00:19:43.424Z,20.42
2022-08-18T00:22:14.827Z,20.42
2022-08-18T00:24:48.291Z,20.41
2022-08-18T00:27:23.956Z,20.36
2022-08-18T00:29:58.426Z,20.36
2022-08-18T00:32:29.182Z,20.35
2022-08-18T00:34:57.511Z,20.33
2022-08-18T00:37:26.309Z,20.33
2022-08-18T00:39:55.693Z,20.33
2022-08-18T00:42:31.016Z,20.34
2022-08-18T00:45:02.454Z,20.31
2022-08-18T00:47:42.030Z,20.24
2022-08-18T00:50:24.434Z,20.19
2022-08-18T00:52:55.331Z,20.17
2022-08-18T00:55:24.798Z,20.15
2022-08-18T00:58:01.371Z,20.15
2022-08-18T01:00:30.205Z,20.11
2022-08-18T01:03:02.485Z,20.08
2022-08-18T01:05:38.145Z,20.06
2022-08-18T01:08:10.562Z,20.05
2022-08-18T01:10:39.736Z,20.02
2022-08-18T01:13:10.310Z,20.00
2022-08-18T01:15:39.593Z,19.96
2022-08-18T01:18:37.668Z,19.95
2022-08-18T01:21:29.341Z,19.98
2022-08-18T01:24:00.094Z,19.93
2022-08-18T01:26:29.081Z,19.91
2022-08-18T01:29:06.189Z,19.86
2022-08-18T01:31:38.416Z,19.81
2022-08-18T01:34:08.271Z,19.79
2022-08-18T01:36:38.612Z,19.78
2022-08-18T01:39:09.005Z,19.75
2022-08-18T01:41:37.592Z,19.70
2022-08-18T01:44:08.879Z,19.67
2022-08-18T01:46:37.701Z,19.63
2022-08-18T01:49:08.229Z,19.59
2022-08-18T01:51:39.966Z,19.58
2022-08-18T01:54:15.751Z,19.57
2022-08-18T01:56:44.593Z,19.57
2022-08-18T01:59:14.913Z,19.57
2022-08-18T02:01:50.425Z,19.57
2022-08-18T02:04:41.571Z,19.55
2022-08-18T02:07:12.745Z,19.52
2022-08-18T02:09:44.676Z,19.47
2022-08-18T02:12:14.428Z,19.46
2022-08-18T02:14:43.384Z,19.45
2022-08-18T02:17:13.663Z,19.45
2022-08-18T02:19:44.640Z,19.42
2022-08-18T02:22:15.872Z,19.41
2022-08-18T02:24:46.491Z,19.39
2022-08-18T02:27:16.533Z,19.34
2022-08-18T02:29:45.526Z,19.32
2022-08-18T02:32:14.371Z,19.32
2022-08-18T02:34:42.985Z,19.30
2022-08-18T02:37:15.308Z,19.27
2022-08-18T02:39:46.256Z,19.26
2022-08-18T02:42:16.584Z,19.24
2022-08-18T02:44:45.822Z,19.23
2022-08-18T02:47:14.600Z,19.20
2022-08-18T02:49:43.604Z,19.17
2022-08-18T02:52:12.246Z,19.14
2022-08-18T02:54:40.976Z,19.12
2022-08-18T02:57:13.005Z,19.13
2022-08-18T02:59:42.717Z,19.11
2022-08-18T03:02:16.045Z,19.07
2022-08-18T03:04:44.435Z,19.03
2022-08-18T03:07:13.155Z,19.00
2022-08-18T03:09:42.536Z,18.97
2022-08-18T03:12:12.851Z,18.98
2022-08-18T03:14:41.306Z,18.99
2022-08-18T03:17:10.926Z,19.02
2022-08-18T03:19:39.539Z,19.04
2022-08-18T03:22:27.655Z,19.04
2022-08-18T03:24:58.291Z,19.02
2022-08-18T03:27:28.510Z,19.01
2022-08-18T03:29:58.809Z,19.02
2022-08-18T03:32:27.853Z,19.03
2022-08-18T03:34:56.159Z,19.05
2022-08-18T03:37:24.909Z,19.13
2022-08-18T03:39:53.666Z,19.14
2022-08-18T03:42:22.576Z,19.16
2022-08-18T03:44:52.929Z,19.19
2022-08-18T03:47:21.334Z,19.24
2022-08-18T03:49:50.135Z,19.30
2022-08-18T03:52:18.731Z,19.35
2022-08-18T03:54:48.623Z,19.44
2022-08-18T03:57:17.349Z,19.49
2022-08-18T03:59:46.354Z,19.55
2022-08-18T04:02:16.482Z,19.61
2022-08-18T04:04:44.877Z,19.65
2022-08-18T04:07:17.312Z,19.74
2022-08-18T04:09:47.030Z,19.82
2022-08-18T04:12:17.511Z,19.92
2022-08-18T04:14:49.567Z,20.01
2022-08-18T04:17:24.455Z,20.11
2022-08-18T04:19:53.407Z,20.19
2022-08-18T04:22:22.762Z,20.28
2022-08-18T04:24:51.739Z,20.37
2022-08-18T04:27:21.606Z,20.52
2022-08-18T04:29:50.985Z,20.65
2022-08-18T04:32:21.096Z,20.76
2022-08-18T04:34:49.549Z,20.85
2022-08-18T04:37:18.559Z,20.96
2022-08-18T04:39:47.441Z,21.10
2022-08-18T04:42:16.206Z,21.19
2022-08-18T04:44:45.090Z,21.22
2022-08-18T04:47:13.855Z,21.42
2022-08-18T04:49:44.731Z,21.59
2022-08-18T04:52:40.835Z,21.55
2022-08-18T04:55:11.094Z,21.60
2022-08-18T04:57:42.735Z,21.56
2022-08-18T05:00:13.588Z,21.58
2022-08-18T05:02:42.805Z,21.64
2022-08-18T05:05:13.108Z,21.76
2022-08-18T05:07:46.238Z,21.80
2022-08-18T05:10:17.940Z,21.86
2022-08-18T05:12:49.100Z,21.97
2022-08-18T05:15:19.044Z,21.90
2022-08-18T05:17:50.385Z,21.50
2022-08-18T05:20:23.364Z,21.45
2022-08-18T05:22:51.782Z,21.50
2022-08-18T05:25:21.061Z,21.70
2022-08-18T05:27:49.919Z,21.78
2022-08-18T05:30:18.912Z,21.79
2022-08-18T05:32:50.433Z,21.83
2022-08-18T05:35:26.679Z,22.04
2022-08-18T05:38:24.874Z,22.00
2022-08-18T05:41:07.348Z,21.96
2022-08-18T05:43:36.991Z,21.95
2022-08-18T05:46:21.829Z,22.09
2022-08-18T05:48:51.568Z,22.20
2022-08-18T05:51:28.045Z,22.39
2022-08-18T05:54:19.540Z,22.59
2022-08-18T05:56:48.641Z,22.78
2022-08-18T05:59:21.815Z,22.87
2022-08-18T06:01:54.636Z,23.11
2022-08-18T06:04:36.529Z,23.33
2022-08-18T06:07:10.368Z,23.58
2022-08-18T06:09:44.532Z,23.82
2022-08-18T06:12:21.461Z,24.05
2022-08-18T06:14:50.303Z,24.32
2022-08-18T06:17:43.796Z,24.32
2022-08-18T06:20:20.509Z,24.19
2022-08-18T06:22:56.647Z,23.86
2022-08-18T06:25:30.445Z,24.01
2022-08-18T06:28:05.963Z,24.20
2022-08-18T06:30:47.299Z,24.02
2022-08-18T06:33:29.820Z,24.49
2022-08-18T06:36:02.815Z,24.84
2022-08-18T06:38:52.873Z,25.14
2022-08-18T06:41:41.942Z,24.91
2022-08-18T06:44:16.450Z,25.13
2022-08-18T06:46:47.922Z,25.40
2022-08-18T06:49:36.993Z,25.39
2022-08-18T06:52:26.980Z,24.71
2022-08-18T06:54:59.120Z,24.46
2022-08-18T06:57:31.767Z,24.21
2022-08-18T07:00:05.176Z,24.55
2022-08-18T07:02:44.079Z,24.90
2022-08-18T07:05:24.284Z,24.58
2022-08-18T07:08:19.904Z,25.21
2022-08-18T07:10:52.134Z,25.55
2022-08-18T07:13:26.652Z,25.84
2022-08-18T07:15:57.476Z,25.97
2022-08-18T07:18:28.244Z,26.20
2022-08-18T07:20:59.166Z,26.53
2022-08-18T07:23:33.977Z,26.94
2022-08-18T07:26:08.883Z,27.22
2022-08-18T07:28:41.931Z,26.98
2022-08-18T07:31:26.130Z,27.74
2022-08-18T07:33:59.388Z,29.81
2022-08-18T07:36:31.691Z,31.71
2022-08-18T07:39:06.321Z,33.55
2022-08-18T07:41:41.735Z,34.63
2022-08-18T07:44:18.475Z,35.40
2022-08-18T07:46:53.636Z,33.08
2022-08-18T07:49:24.911Z,31.64
2022-08-18T07:51:58.560Z,32.85
2022-08-18T07:54:50.442Z,33.65
2022-08-18T07:57:28.336Z,34.17
2022-08-18T08:00:10.482Z,33.80
2022-08-18T08:02:59.057Z,33.44
2022-08-18T08:05:39.883Z,33.01
2022-08-18T08:08:19.130Z,32.30
2022-08-18T08:11:06.296Z,29.38
2022-08-18T08:13:55.323Z,29.19
2022-08-18T08:16:32.936Z,29.89
2022-08-18T08:19:12.188Z,30.40
2022-08-18T08:21:41.885Z,29.93
2022-08-18T08:24:16.860Z,30.36
2022-08-18T08:26:52.786Z,30.66
2022-08-18T08:29:29.126Z,30.94
2022-08-18T08:32:03.576Z,31.02
2022-08-18T08:34:36.793Z,30.61
2022-08-18T08:37:08.544Z,30.51
2022-08-18T08:39:40.091Z,30.37
2022-08-18T08:42:31.546Z,29.81
2022-08-18T08:45:06.597Z,29.44
2022-08-18T08:47:38.774Z,29.18
2022-08-18T08:50:11.151Z,28.57
2022-08-18T08:52:43.660Z,29.13
2022-08-18T08:55:18.915Z,28.84
2022-08-18T08:57:52.528Z,29.91
2022-08-18T09:00:23.252Z,30.19
2022-08-18T09:03:03.598Z,29.94
2022-08-18T09:05:37.334Z,29.66
2022-08-18T09:08:36.098Z,29.71
2022-08-18T09:11:29.853Z,30.49
2022-08-18T09:14:14.439Z,30.10
2022-08-18T09:16:54.178Z,30.93
2022-08-18T09:19:33.204Z,30.98
2022-08-18T09:22:06.135Z,30.94
2022-08-18T09:24:41.505Z,32.96
2022-08-18T09:27:16.745Z,34.85
2022-08-18T09:29:52.673Z,33.13
2022-08-18T09:32:45.118Z,35.18
2022-08-18T09:35:31.112Z,38.92
2022-08-18T09:38:25.990Z,37.59
2022-08-18T09:41:16.083Z,36.13
2022-08-18T09:47:01.315Z,39.98
2022-08-18T09:49:51.124Z,40.27
2022-08-18T09:52:57.794Z,43.07
2022-08-18T09:56:01.129Z,44.93
2022-08-18T09:58:52.852Z,44.77
2022-08-18T10:01:39.971Z,40.02
2022-08-18T10:04:31.309Z,41.81
2022-08-18T10:07:24.220Z,40.15
2022-08-18T10:10:03.779Z,42.99
2022-08-18T10:12:59.865Z,44.59
2022-08-18T10:15:41.627Z,40.32
2022-08-18T10:18:32.646Z,40.65
2022-08-18T10:21:09.525Z,38.70
2022-08-18T10:24:14.649Z,37.86
2022-08-18T10:27:13.080Z,42.98
2022-08-18T10:29:59.712Z,46.46
2022-08-18T10:32:52.185Z,47.37
2022-08-18T10:35:58.561Z,47.09
2022-08-18T10:38:46.165Z,48.39
2022-08-18T10:41:25.731Z,44.56
2022-08-18T10:43:57.670Z,37.54
2022-08-18T10:46:32.654Z,40.24
2022-08-18T10:49:08.865Z,37.12
2022-08-18T10:52:01.357Z,35.33
2022-08-18T10:57:35.996Z,34.99
2022-08-18T11:00:12.095Z,35.54
2022-08-18T11:03:49.942Z,34.98
2022-08-18T11:05:47.696Z,36.01
2022-08-18T11:08:18.987Z,34.62
2022-08-18T11:11:27.572Z,40.25
2022-08-18T11:13:51.597Z,38.66
2022-08-18T11:16:30.041Z,38.20
2022-08-18T11:19:00.486Z,37.77
2022-08-18T11:21:41.950Z,36.91
2022-08-18T11:24:15.988Z,40.30
2022-08-18T11:26:52.577Z,41.98
2022-08-18T11:29:32.139Z,44.26
2022-08-18T11:32:05.737Z,47.16
2022-08-18T11:34:41.305Z,44.82
2022-08-18T11:37:28.355Z,45.40
2022-08-18T11:41:09.819Z,44.71
2022-08-18T11:43:26.634Z,44.87
2022-08-18T11:46:04.583Z,42.99
2022-08-18T11:51:30.387Z,42.58
2022-08-18T11:54:01.158Z,44.46
2022-08-18T11:56:35.763Z,47.16
2022-08-18T11:59:08.001Z,50.22
2022-08-18T12:01:51.301Z,45.19
2022-08-18T12:04:25.749Z,43.31
2022-08-18T12:07:06.785Z,40.14
2022-08-18T12:12:31.650Z,41.44
2022-08-18T12:15:13.969Z,37.74
2022-08-18T12:17:52.282Z,37.55
2022-08-18T12:20:23.041Z,38.86
2022-08-18T12:22:52.330Z,37.05
2022-08-18T12:25:24.592Z,36.01
2022-08-18T12:27:54.774Z,37.55
2022-08-18T12:30:23.681Z,37.37
2022-08-18T12:35:44.763Z,33.08
2022-08-18T12:38:15.788Z,33.44
2022-08-18T12:40:44.319Z,33.68
2022-08-18T12:43:13.405Z,38.09
2022-08-18T12:45:42.632Z,38.98
2022-08-18T12:48:12.657Z,39.44
2022-08-18T12:50:54.134Z,36.71
2022-08-18T12:53:29.921Z,33.66
2022-08-18T12:56:21.056Z,35.23
2022-08-18T12:58:50.082Z,34.95
2022-08-18T13:01:19.436Z,34.71
2022-08-18T13:03:52.741Z,34.82
2022-08-18T13:06:40.825Z,39.10
2022-08-18T13:09:16.624Z,40.61
2022-08-18T13:12:02.883Z,41.56
2022-08-18T13:14:31.566Z,41.45
2022-08-18T13:17:00.659Z,42.28
2022-08-18T13:19:32.042Z,38.03
2022-08-18T13:22:02.010Z,37.82
2022-08-18T13:24:32.554Z,36.33
2022-08-18T13:27:01.836Z,37.21
2022-08-18T13:29:30.614Z,35.52
2022-08-18T13:31:59.747Z,33.32
2022-08-18T13:34:29.798Z,32.61
2022-08-18T13:37:00.523Z,33.75
2022-08-18T13:39:33.823Z,34.28
2022-08-18T13:42:21.759Z,33.51
2022-08-18T13:44:55.244Z,33.92
2022-08-18T13:47:27.647Z,36.49
2022-08-18T13:49:58.309Z,35.50
2022-08-18T13:52:41.154Z,34.87
2022-08-18T13:55:16.837Z,36.26
2022-08-18T13:57:49.968Z,36.01
2022-08-18T14:00:29.735Z,36.77
2022-08-18T14:03:02.137Z,37.26
2022-08-18T14:05:36.721Z,37.95
2022-08-18T14:08:22.182Z,38.80
2022-08-18T14:10:54.248Z,38.20
2022-08-18T14:13:24.541Z,36.11
2022-08-18T14:15:54.913Z,34.98
2022-08-18T14:18:29.082Z,36.46
2022-08-18T14:21:22.913Z,37.73
2022-08-18T14:24:14.450Z,38.26
2022-08-18T14:26:50.077Z,38.80
2022-08-18T14:29:45.529Z,39.55
2022-08-18T14:32:08.023Z,39.51
2022-08-18T14:34:37.364Z,39.16
2022-08-18T14:37:06.003Z,39.46
2022-08-18T14:39:40.226Z,40.35
2022-08-18T14:42:09.290Z,40.63
2022-08-18T14:44:41.622Z,41.16
2022-08-18T14:47:24.228Z,40.69
2022-08-18T14:49:53.113Z,37.94
2022-08-18T14:52:24.267Z,36.31
2022-08-18T14:54:55.357Z,38.12
2022-08-18T14:57:24.056Z,39.42
2022-08-18T14:59:54.726Z,39.98
2022-08-18T15:02:26.047Z,36.04
2022-08-18T15:04:57.711Z,33.73
2022-08-18T15:07:26.835Z,33.87
2022-08-18T15:10:14.795Z,33.88
2022-08-18T15:12:46.079Z,36.09
2022-08-18T15:15:17.864Z,37.93
2022-08-18T15:17:50.321Z,39.04
2022-08-18T15:20:28.665Z,40.35
2022-08-18T15:23:25.113Z,40.46
2022-08-18T15:25:59.757Z,40.17
2022-08-18T15:28:29.134Z,36.48
2022-08-18T15:33:51.033Z,37.82
2022-08-18T15:36:28.768Z,39.71
2022-08-18T15:38:58.194Z,40.72
2022-08-18T15:41:32.240Z,41.19
2022-08-18T15:44:01.203Z,41.60
2022-08-18T15:46:33.378Z,41.76
2022-08-18T15:49:05.401Z,40.90
2022-08-18T15:51:41.173Z,40.92
2022-08-18T15:54:12.462Z,41.69
2022-08-18T15:56:43.509Z,39.37
2022-08-18T15:59:12.714Z,38.59
2022-08-18T16:01:43.066Z,36.94
2022-08-18T16:04:15.622Z,39.30
2022-08-18T16:06:47.984Z,39.77
2022-08-18T16:09:17.950Z,40.56
2022-08-18T16:11:48.275Z,38.34
2022-08-18T16:14:17.101Z,36.94
2022-08-18T16:16:45.563Z,39.16
2022-08-18T16:19:14.576Z,36.80
2022-08-18T16:21:43.290Z,36.30
2022-08-18T16:24:14.462Z,35.65
2022-08-18T16:26:44.300Z,34.71
2022-08-18T16:29:14.510Z,35.24
2022-08-18T16:31:42.897Z,33.78
2022-08-18T16:34:11.894Z,34.73
2022-08-18T16:36:40.761Z,35.11
2022-08-18T16:39:09.707Z,33.43
2022-08-18T16:41:38.755Z,33.48
2022-08-18T16:44:07.639Z,32.90
2022-08-18T16:46:37.596Z,33.50
2022-08-18T16:49:08.120Z,33.21
2022-08-18T16:51:38.354Z,33.33
2022-08-18T16:54:07.147Z,32.44
2022-08-18T16:56:36.717Z,32.37
2022-08-18T16:59:23.256Z,31.09
2022-08-18T17:02:10.762Z,30.19
2022-08-18T17:04:39.669Z,29.43
2022-08-18T17:07:08.779Z,29.21
2022-08-18T17:09:37.609Z,28.97
2022-08-18T17:12:06.718Z,28.50
2022-08-18T17:14:36.942Z,28.43
2022-08-18T17:17:07.769Z,28.45
2022-08-18T17:19:37.669Z,28.81
2022-08-18T17:22:08.504Z,29.24
2022-08-18T17:24:37.958Z,29.77
2022-08-18T17:27:27.244Z,30.09
2022-08-18T17:30:04.024Z,30.05
2022-08-18T17:32:39.747Z,29.61
2022-08-18T17:35:14.499Z,29.19
2022-08-18T17:37:48.673Z,28.81
2022-08-18T17:40:21.135Z,28.48
2022-08-18T17:42:51.737Z,28.26
2022-08-18T17:45:22.198Z,27.97
2022-08-18T17:47:56.423Z,27.67
2022-08-18T17:50:46.005Z,27.53
2022-08-18T17:53:15.670Z,27.40
2022-08-18T17:55:44.478Z,27.24
2022-08-18T17:58:20.543Z,27.12
2022-08-18T18:00:49.234Z,27.06
2022-08-18T18:03:19.602Z,27.00
2022-08-18T18:05:52.838Z,26.95
2022-08-18T18:08:21.656Z,26.88
2022-08-18T18:11:07.660Z,26.80
2022-08-18T18:13:36.560Z,26.70
2022-08-18T18:16:22.467Z,26.64
2022-08-18T18:18:59.891Z,26.56
2022-08-18T18:21:55.328Z,26.50
2022-08-18T18:24:31.987Z,26.38
2022-08-18T18:27:01.194Z,26.30
2022-08-18T18:29:37.387Z,26.23
2022-08-18T18:32:25.133Z,26.21
2022-08-18T18:35:13.181Z,26.14
2022-08-18T18:37:48.501Z,26.12
2022-08-18T18:40:27.925Z,26.09
2022-08-18T18:42:57.525Z,26.06
2022-08-18T18:45:29.024Z,26.03
2022-08-18T18:48:06.470Z,25.99
2022-08-18T18:50:55.867Z,25.95
2022-08-18T18:53:43.348Z,25.90
2022-08-18T18:56:18.955Z,25.84
2022-08-18T18:58:58.453Z,25.79
2022-08-18T19:01:33.410Z,25.76
2022-08-18T19:04:07.295Z,25.72
2022-08-18T19:06:47.448Z,25.68
2022-08-18T19:09:18.495Z,25.65
2022-08-18T19:11:57.748Z,25.62
2022-08-18T19:14:34.715Z,25.59
2022-08-18T19:17:09.504Z,25.56
2022-08-18T19:19:43.060Z,25.52
2022-08-18T19:22:20.942Z,25.47
2022-08-18T19:24:58.238Z,25.48
2022-08-18T19:27:31.055Z,25.45
2022-08-18T19:30:03.479Z,25.43
2022-08-18T19:32:37.392Z,25.37
2022-08-18T19:35:12.103Z,25.33
2022-08-18T19:37:54.877Z,25.25
2022-08-18T19:40:29.220Z,25.16
2022-08-18T19:43:01.578Z,25.05
2022-08-18T19:45:35.714Z,24.96
2022-08-18T19:48:13.145Z,24.84
2022-08-18T19:50:50.549Z,24.73
2022-08-18T19:53:48.226Z,24.63
2022-08-18T19:56:33.667Z,24.56
2022-08-18T19:59:19.386Z,24.47
2022-08-18T20:01:59.326Z,24.41
2022-08-18T20:04:39.079Z,24.33
2022-08-18T20:07:27.768Z,24.25
2022-08-18T20:10:22.055Z,24.29
2022-08-18T20:13:20.162Z,24.31
2022-08-18T20:16:13.132Z,24.28
2022-08-18T20:18:44.025Z,24.27
2022-08-18T20:21:41.363Z,24.23
2022-08-18T20:24:18.489Z,24.20
2022-08-18T20:26:50.541Z,24.16
2022-08-18T20:29:22.179Z,24.15
2022-08-18T20:31:59.994Z,24.14
2022-08-18T20:34:31.129Z,24.17
2022-08-18T20:37:01.880Z,24.17
2022-08-18T20:39:45.403Z,24.15
2022-08-18T20:42:47.687Z,24.12
2022-08-18T20:45:36.637Z,24.04
2022-08-18T20:48:24.929Z,23.93
2022-08-18T20:51:02.565Z,23.82
2022-08-18T20:53:58.818Z,23.73
2022-08-18T20:56:44.044Z,23.66
2022-08-18T20:59:21.311Z,23.59
2022-08-18T21:01:58.127Z,23.56
2022-08-18T21:04:48.467Z,23.59
2022-08-18T21:07:27.391Z,23.63
2022-08-18T21:10:12.702Z,23.66
2022-08-18T21:12:52.100Z,23.69
2022-08-18T21:15:24.429Z,23.65
2022-08-18T21:18:01.122Z,23.64
2022-08-18T21:20:30.111Z,23.66
2022-08-18T21:23:04.424Z,23.67
2022-08-18T21:25:33.822Z,23.63
2022-08-18T21:28:04.130Z,23.61
2022-08-18T21:30:34.992Z,23.59
2022-08-18T21:33:20.197Z,23.57
2022-08-18T21:35:49.194Z,23.53
2022-08-18T21:38:27.164Z,23.49
2022-08-18T21:41:00.097Z,23.45
2022-08-18T21:43:39.216Z,23.44
2022-08-18T21:46:10.446Z,23.43
2022-08-18T21:48:48.932Z,23.43
2022-08-18T21:51:22.925Z,23.41
2022-08-18T21:53:53.429Z,23.41
2022-08-18T21:56:24.947Z,23.42
2022-08-18T21:59:07.274Z,23.43
2022-08-18T22:01:39.668Z,23.41
2022-08-18T22:04:24.351Z,23.41
2022-08-18T22:06:54.837Z,23.40
2022-08-18T22:09:44.799Z,23.39
2022-08-18T22:12:36.924Z,23.36
2022-08-18T22:15:10.504Z,23.32
2022-08-18T22:17:52.090Z,23.29
2022-08-18T22:20:45.135Z,23.22
2022-08-18T22:23:42.418Z,23.15
2022-08-18T22:26:14.121Z,23.12
2022-08-18T22:28:47.468Z,23.07
2022-08-18T22:31:20.861Z,23.04
2022-08-18T22:33:52.024Z,22.99
2022-08-18T22:36:22.917Z,22.97
2022-08-18T22:38:52.511Z,22.93
2022-08-18T22:41:22.218Z,22.93
2022-08-18T22:43:54.988Z,22.92
2022-08-18T22:46:25.201Z,22.94
2022-08-18T22:48:55.842Z,22.92
2022-08-18T22:51:26.518Z,22.93
2022-08-18T22:53:56.869Z,22.94
2022-08-18T22:56:34.391Z,22.91
2022-08-18T22:59:13.621Z,22.89
2022-08-18T23:01:46.961Z,22.88
2022-08-18T23:04:18.555Z,22.89
2022-08-18T23:06:52.478Z,22.85
2022-08-18T23:09:23.421Z,22.81
2022-08-18T23:11:52.753Z,22.76
2022-08-18T23:14:22.338Z,22.70
2022-08-18T23:16:50.875Z,22.66
2022-08-18T23:19:22.291Z,22.59
2022-08-18T23:21:51.801Z,22.51
2022-08-18T23:24:22.061Z,22.44
2022-08-18T23:26:51.059Z,22.37
2022-08-18T23:29:22.700Z,22.31
2022-08-18T23:31:51.811Z,22.23
2022-08-18T23:34:23.999Z,22.14
2022-08-18T23:36:55.574Z,22.09
2022-08-18T23:39:24.429Z,22.07
2022-08-18T23:41:53.512Z,22.04
2022-08-18T23:44:23.894Z,22.02
2022-08-18T23:46:56.460Z,21.97
2022-08-18T23:49:26.809Z,21.93
2022-08-18T23:51:57.764Z,21.86
2022-08-18T23:54:29.919Z,21.82
2022-08-18T23:56:58.905Z,21.79
2022-08-18T23:59:29.148Z,21.74
